createdAt,value
2023-01-23T00:01:28.130Z,9.10
2023-01-23T00:03:55.864Z,9.00
2023-01-23T00:06:23.170Z,9.00
2023-01-23T00:08:50.429Z,8.80
2023-01-23T00:11:24.027Z,8.70
2023-01-23T00:13:57.321Z,8.90
2023-01-23T00:16:25.212Z,8.60
2023-01-23T00:18:52.357Z,7.90
2023-01-23T00:21:26.387Z,7.90
2023-01-23T00:23:54.913Z,7.80
2023-01-23T00:26:23.904Z,8.10
2023-01-23T00:28:51.316Z,8.60
2023-01-23T00:31:29.577Z,7.70
2023-01-23T00:34:11.393Z,7.20
2023-01-23T00:36:39.228Z,7.50
2023-01-23T00:39:17.418Z,8.00
2023-01-23T00:41:45.922Z,6.90
2023-01-23T00:44:18.406Z,7.70
2023-01-23T00:46:45.878Z,7.80
2023-01-23T00:49:12.943Z,7.20
2023-01-23T00:51:39.920Z,7.10
2023-01-23T00:54:07.010Z,7.50
2023-01-23T00:56:34.172Z,7.10
2023-01-23T00:59:01.313Z,7.50
2023-01-23T01:01:29.215Z,7.30
2023-01-23T01:03:56.406Z,7.10
2023-01-23T01:06:23.589Z,6.60
2023-01-23T01:08:50.627Z,6.40
2023-01-23T01:11:17.679Z,7.40
2023-01-23T01:13:50.031Z,7.50
2023-01-23T01:16:24.500Z,7.00
2023-01-23T01:18:51.689Z,8.20
2023-01-23T01:21:19.890Z,6.70
2023-01-23T01:23:47.039Z,7.40
2023-01-23T01:26:14.189Z,7.10
2023-01-23T01:28:42.672Z,7.60
2023-01-23T01:31:12.252Z,7.30
2023-01-23T01:33:45.002Z,7.00
2023-01-23T01:36:13.542Z,7.00
2023-01-23T01:38:40.893Z,7.20
2023-01-23T01:41:08.574Z,7.20
2023-01-23T01:43:36.127Z,6.90
2023-01-23T01:46:24.075Z,6.70
2023-01-23T01:49:09.739Z,6.40
2023-01-23T01:51:56.019Z,6.90
2023-01-23T01:54:37.826Z,7.50
2023-01-23T01:57:44.504Z,7.30
2023-01-23T02:00:16.687Z,7.20
2023-01-23T02:02:59.090Z,7.00
2023-01-23T02:05:27.069Z,7.50
2023-01-23T02:08:09.593Z,6.90
2023-01-23T02:10:44.593Z,6.90
2023-01-23T02:13:26.184Z,6.80
2023-01-23T02:15:58.481Z,7.00
2023-01-23T02:18:27.228Z,7.00
2023-01-23T02:21:00.624Z,6.70
2023-01-23T02:23:39.764Z,6.20
2023-01-23T02:26:13.954Z,6.00
2023-01-23T02:28:48.155Z,5.60
2023-01-23T02:31:19.150Z,6.10
2023-01-23T02:33:49.158Z,6.30
2023-01-23T02:36:17.359Z,5.30
2023-01-23T02:38:54.938Z,5.70
2023-01-23T02:41:33.857Z,5.20
2023-01-23T02:44:26.609Z,6.20
2023-01-23T02:46:59.746Z,5.00
2023-01-23T02:49:32.160Z,6.30
2023-01-23T02:51:59.724Z,6.20
2023-01-23T02:54:26.888Z,6.50
2023-01-23T02:56:54.027Z,5.30
2023-01-23T02:59:41.361Z,5.80
2023-01-23T03:02:08.638Z,5.90
2023-01-23T03:04:40.867Z,5.80
2023-01-23T03:07:07.908Z,5.50
2023-01-23T03:09:35.063Z,5.10
2023-01-23T03:12:09.382Z,5.50
2023-01-23T03:14:38.026Z,6.00
2023-01-23T03:17:05.057Z,5.50
2023-01-23T03:19:39.589Z,5.10
2023-01-23T03:22:07.269Z,5.50
2023-01-23T03:24:34.589Z,5.80
2023-01-23T03:27:06.780Z,4.90
2023-01-23T03:29:57.747Z,5.20
2023-01-23T03:32:36.075Z,5.00
2023-01-23T03:35:04.521Z,5.00
2023-01-23T03:37:31.652Z,6.10
2023-01-23T03:40:23.000Z,6.60
2023-01-23T03:42:50.080Z,5.30
2023-01-23T03:45:23.015Z,5.70
2023-01-23T03:47:51.297Z,5.90
2023-01-23T03:50:18.672Z,8.90
2023-01-23T03:52:51.151Z,6.20
2023-01-23T03:55:18.375Z,6.50
2023-01-23T03:57:46.149Z,5.70
2023-01-23T04:00:19.843Z,5.00
2023-01-23T04:02:55.408Z,6.10
2023-01-23T04:05:22.949Z,6.40
2023-01-23T04:07:50.101Z,6.10
2023-01-23T04:10:22.508Z,5.10
2023-01-23T04:12:53.448Z,5.70
2023-01-23T04:15:20.658Z,5.40
2023-01-23T04:17:48.114Z,5.80
2023-01-23T04:20:20.620Z,5.20
2023-01-23T04:22:47.902Z,5.10
2023-01-23T04:25:20.213Z,5.10
2023-01-23T04:27:47.575Z,5.60
2023-01-23T04:30:14.626Z,4.80
2023-01-23T04:32:46.818Z,5.40
2023-01-23T04:35:14.650Z,5.80
2023-01-23T04:44:59.260Z,5.50
2023-01-23T04:47:32.589Z,6.50
2023-01-23T04:50:00.847Z,7.20
2023-01-23T04:52:29.411Z,6.50
2023-01-23T04:54:57.730Z,7.30
2023-01-23T04:57:30.486Z,7.20
2023-01-23T05:00:04.377Z,7.10
2023-01-23T05:02:37.305Z,7.10
2023-01-23T05:05:09.941Z,7.30
2023-01-23T05:07:43.946Z,7.70
2023-01-23T05:10:15.090Z,6.90
2023-01-23T05:12:43.059Z,7.00
2023-01-23T05:15:10.522Z,7.20
2023-01-23T05:17:39.308Z,8.00
2023-01-23T05:20:07.492Z,7.40
2023-01-23T05:22:42.103Z,7.30
2023-01-23T05:25:10.276Z,8.30
2023-01-23T05:27:37.533Z,9.10
2023-01-23T05:30:05.497Z,9.70
2023-01-23T05:32:34.300Z,10.00
2023-01-23T05:35:15.072Z,9.30
2023-01-23T05:37:43.460Z,9.20
2023-01-23T05:40:11.441Z,9.20
2023-01-23T05:42:57.398Z,9.20
2023-01-23T05:45:44.830Z,9.80
2023-01-23T05:48:20.143Z,9.80
2023-01-23T05:50:47.311Z,9.30
2023-01-23T05:53:14.671Z,9.60
2023-01-23T05:55:44.297Z,9.70
2023-01-23T05:58:13.019Z,8.90
2023-01-23T06:00:57.005Z,9.80
2023-01-23T06:03:43.206Z,11.40
2023-01-23T06:06:41.564Z,10.20
2023-01-23T06:09:09.357Z,10.30
2023-01-23T06:11:38.778Z,11.10
2023-01-23T06:14:06.963Z,11.20
2023-01-23T06:16:34.431Z,11.70
2023-01-23T06:19:01.563Z,12.70
2023-01-23T06:21:30.322Z,11.90
2023-01-23T06:24:01.132Z,10.10
2023-01-23T06:26:28.263Z,10.50
2023-01-23T06:28:56.071Z,10.80
2023-01-23T06:31:24.050Z,9.80
2023-01-23T06:33:58.052Z,11.10
2023-01-23T06:36:29.403Z,11.00
2023-01-23T06:39:03.303Z,11.00
2023-01-23T06:41:36.190Z,11.00
2023-01-23T06:44:04.672Z,11.00
2023-01-23T06:46:33.592Z,11.40
2023-01-23T06:49:06.131Z,10.70
2023-01-23T06:51:34.711Z,11.70
2023-01-23T06:54:01.871Z,10.70
2023-01-23T06:56:29.373Z,11.60
2023-01-23T06:58:56.474Z,11.70
2023-01-23T07:01:29.758Z,11.20
2023-01-23T07:04:15.145Z,11.80
2023-01-23T07:06:43.365Z,12.10
2023-01-23T07:09:11.102Z,11.70
2023-01-23T07:11:39.132Z,12.90
2023-01-23T07:14:06.571Z,11.40
2023-01-23T07:16:35.374Z,11.80
2023-01-23T07:19:04.739Z,11.60
2023-01-23T07:21:32.864Z,12.50
2023-01-23T07:23:59.766Z,11.80
2023-01-23T07:26:26.763Z,11.30
2023-01-23T07:28:53.587Z,13.50
2023-01-23T07:31:21.082Z,12.90
2023-01-23T07:33:50.027Z,12.40
2023-01-23T07:36:17.907Z,12.70
2023-01-23T07:38:44.675Z,13.20
2023-01-23T07:41:13.769Z,12.70
2023-01-23T07:43:40.556Z,13.50
2023-01-23T07:46:09.540Z,13.10
2023-01-23T07:48:39.561Z,12.10
2023-01-23T07:51:07.125Z,13.80
2023-01-23T07:53:34.026Z,12.70
2023-01-23T07:56:04.449Z,12.20
2023-01-23T07:58:32.208Z,12.60
2023-01-23T08:01:00.297Z,13.00
2023-01-23T08:03:29.676Z,11.30
2023-01-23T08:06:01.647Z,12.60
2023-01-23T08:08:30.158Z,11.00
2023-01-23T08:10:56.965Z,11.90
2023-01-23T08:13:23.883Z,12.00
2023-01-23T08:15:52.773Z,11.90
2023-01-23T08:18:19.581Z,12.50
2023-01-23T08:20:53.147Z,13.20
2023-01-23T08:23:23.570Z,12.80
2023-01-23T08:25:54.997Z,13.40
2023-01-23T08:28:22.143Z,13.80
2023-01-23T08:30:49.618Z,13.10
2023-01-23T08:33:18.065Z,12.80
2023-01-23T08:35:56.582Z,13.70
2023-01-23T08:38:24.203Z,14.50
2023-01-23T08:40:52.283Z,13.00
2023-01-23T08:43:20.269Z,13.70
2023-01-23T08:45:51.415Z,13.50
2023-01-23T08:48:19.932Z,13.50
2023-01-23T08:50:47.405Z,13.80
2023-01-23T08:53:15.039Z,13.60
2023-01-23T08:55:42.125Z,13.70
2023-01-23T08:58:12.423Z,14.10
2023-01-23T09:00:39.596Z,14.90
2023-01-23T09:03:06.641Z,14.20
2023-01-23T09:05:33.951Z,14.50
2023-01-23T09:08:07.115Z,14.50
2023-01-23T09:10:37.619Z,15.40
2023-01-23T09:13:04.689Z,14.60
2023-01-23T09:15:31.964Z,14.40
2023-01-23T09:17:59.494Z,14.80
2023-01-23T09:20:28.573Z,15.20
2023-01-23T09:22:55.831Z,15.50
2023-01-23T09:25:22.743Z,17.10
2023-01-23T09:27:50.044Z,16.90
2023-01-23T09:30:17.349Z,17.90
2023-01-23T09:32:44.569Z,19.40
2023-01-23T09:35:11.402Z,17.50
2023-01-23T09:38:00.319Z,19.20
2023-01-23T09:40:35.161Z,18.00
2023-01-23T09:43:13.680Z,18.60
2023-01-23T09:45:41.591Z,20.90
2023-01-23T09:48:20.945Z,19.30
2023-01-23T09:50:56.302Z,18.70
2023-01-23T09:53:26.039Z,17.30
2023-01-23T09:55:58.058Z,16.40
2023-01-23T09:58:28.291Z,17.30
2023-01-23T10:00:55.470Z,15.40
2023-01-23T10:03:23.165Z,15.80
2023-01-23T10:06:13.712Z,15.60
2023-01-23T10:08:56.323Z,12.80
2023-01-23T10:11:37.858Z,13.40
2023-01-23T10:14:04.766Z,13.70
2023-01-23T10:16:50.911Z,13.30
2023-01-23T10:19:21.287Z,13.80
2023-01-23T10:21:53.911Z,12.30
2023-01-23T10:24:46.137Z,12.80
2023-01-23T10:27:19.424Z,12.60
2023-01-23T10:30:18.261Z,13.30
2023-01-23T10:32:54.592Z,15.60
2023-01-23T10:35:29.101Z,12.70
2023-01-23T10:38:05.092Z,12.90
2023-01-23T10:40:52.364Z,14.20
2023-01-23T10:43:20.488Z,13.80
2023-01-23T10:45:48.341Z,15.80
2023-01-23T10:48:39.131Z,15.90
2023-01-23T10:51:32.282Z,19.90
2023-01-23T10:54:33.736Z,18.40
2023-01-23T10:57:08.370Z,19.10
2023-01-23T10:59:47.985Z,17.20
2023-01-23T11:02:15.449Z,17.00
2023-01-23T11:04:43.968Z,16.60
2023-01-23T11:07:18.848Z,16.50
2023-01-23T11:09:46.947Z,14.60
2023-01-23T11:12:22.932Z,16.00
2023-01-23T11:14:50.352Z,16.10
2023-01-23T11:17:20.687Z,15.40
2023-01-23T11:19:53.110Z,17.00
2023-01-23T11:22:24.209Z,16.40
2023-01-23T11:24:51.624Z,14.20
2023-01-23T11:27:30.831Z,15.80
2023-01-23T11:30:21.925Z,14.90
2023-01-23T11:32:56.253Z,14.90
2023-01-23T11:35:57.700Z,13.90
2023-01-23T11:38:31.505Z,15.80
2023-01-23T11:40:58.669Z,15.90
2023-01-23T11:43:25.540Z,14.90
2023-01-23T11:46:02.157Z,15.90
2023-01-23T11:48:54.083Z,14.00
2023-01-23T11:51:41.550Z,12.40
2023-01-23T11:54:48.742Z,13.20
2023-01-23T11:57:42.157Z,13.80
2023-01-23T12:00:17.279Z,14.20
2023-01-23T12:03:02.936Z,13.80
2023-01-23T12:08:58.149Z,13.00
2023-01-23T12:11:24.993Z,13.10
2023-01-23T12:13:55.411Z,12.70
2023-01-23T12:16:57.521Z,13.60
2023-01-23T12:19:33.382Z,14.00
2023-01-23T12:22:03.074Z,13.40
2023-01-23T12:24:49.495Z,12.30
2023-01-23T12:27:43.506Z,13.20
2023-01-23T12:30:25.293Z,13.80
2023-01-23T12:32:55.659Z,13.80
2023-01-23T12:35:26.182Z,14.60
2023-01-23T12:38:06.648Z,14.90
2023-01-23T12:40:39.562Z,13.40
2023-01-23T12:43:10.946Z,13.70
2023-01-23T12:45:41.372Z,13.30
2023-01-23T12:48:18.087Z,14.20
2023-01-23T12:50:47.058Z,14.50
2023-01-23T12:53:16.360Z,13.50
2023-01-23T12:56:03.852Z,14.20
2023-01-23T12:58:35.484Z,13.90
2023-01-23T13:01:06.197Z,15.50
2023-01-23T13:04:26.997Z,13.60
2023-01-23T13:06:56.891Z,12.00
2023-01-23T17:00:03.394Z,18.80
2023-01-23T17:02:30.789Z,19.00
2023-01-23T17:04:58.219Z,18.40
2023-01-23T17:07:25.313Z,20.00
2023-01-23T17:09:52.701Z,17.80
2023-01-23T17:12:28.487Z,17.40
2023-01-23T17:14:55.953Z,19.60
2023-01-23T17:17:34.803Z,17.50
2023-01-23T17:20:04.833Z,19.30
2023-01-23T17:22:38.724Z,18.00
2023-01-23T17:25:25.257Z,17.70
2023-01-23T17:28:07.299Z,18.60
2023-01-23T17:30:39.472Z,18.00
2023-01-23T17:33:20.617Z,17.80
2023-01-23T17:35:48.581Z,16.20
2023-01-23T17:38:17.500Z,18.10
2023-01-23T17:40:44.899Z,16.80
2023-01-23T17:43:13.684Z,17.90
2023-01-23T17:45:41.088Z,18.30
2023-01-23T17:48:12.858Z,19.00
2023-01-23T17:50:43.898Z,20.40
2023-01-23T17:53:15.274Z,19.10
2023-01-23T17:55:46.337Z,19.00
2023-01-23T17:58:13.700Z,19.30
2023-01-23T18:00:49.002Z,19.80
2023-01-23T18:03:19.610Z,18.20
2023-01-23T18:05:50.463Z,18.80
2023-01-23T18:08:23.917Z,17.60
2023-01-23T18:10:53.083Z,16.40
2023-01-23T18:13:34.658Z,17.00
2023-01-23T18:16:07.866Z,16.70
2023-01-23T18:18:37.008Z,16.30
2023-01-23T18:21:06.165Z,16.90
2023-01-23T18:23:37.030Z,16.60
2023-01-23T18:26:13.491Z,16.30
2023-01-23T18:28:52.535Z,20.40
2023-01-23T18:31:38.840Z,32.20
2023-01-23T18:34:36.870Z,32.20
2023-01-23T18:37:34.375Z,26.70
2023-01-23T18:40:33.775Z,24.90
2023-01-23T18:43:13.955Z,24.70
2023-01-23T18:45:41.510Z,23.30
2023-01-23T18:48:25.441Z,19.90
2023-01-23T18:51:20.238Z,19.30
2023-01-23T18:54:17.237Z,17.50
2023-01-23T18:57:09.940Z,16.80
2023-01-23T19:00:00.312Z,16.30
2023-01-23T19:02:36.550Z,15.30
2023-01-23T19:07:31.038Z,15.80
2023-01-23T19:09:58.149Z,17.20
2023-01-23T19:12:40.923Z,17.30
2023-01-23T19:15:20.318Z,16.60
2023-01-23T19:18:02.722Z,17.50
2023-01-23T19:20:40.386Z,18.40
2023-01-23T19:23:35.347Z,19.50
2023-01-23T19:26:02.763Z,20.00
2023-01-23T19:28:30.054Z,18.20
2023-01-23T19:30:57.338Z,20.80
2023-01-23T19:33:24.213Z,19.50
2023-01-23T19:35:54.299Z,19.80
2023-01-23T19:38:23.470Z,21.80
2023-01-23T19:40:51.281Z,22.10
2023-01-23T19:43:23.847Z,21.50
2023-01-23T19:45:52.846Z,21.40
2023-01-23T19:48:19.826Z,23.20
2023-01-23T19:50:52.244Z,21.90
2023-01-23T19:53:20.535Z,22.30
2023-01-23T19:55:47.776Z,22.70
2023-01-23T19:58:19.819Z,22.90
2023-01-23T20:00:46.669Z,22.40
2023-01-23T20:03:14.291Z,21.10
2023-01-23T20:05:46.685Z,21.90
2023-01-23T20:08:13.709Z,19.50
2023-01-23T20:10:40.551Z,19.60
2023-01-23T20:13:08.291Z,21.50
2023-01-23T20:15:35.589Z,20.80
2023-01-23T20:18:03.506Z,19.60
2023-01-23T20:20:30.392Z,20.20
2023-01-23T20:22:57.337Z,18.30
2023-01-23T20:25:25.677Z,17.90
2023-01-23T20:27:52.597Z,19.50
2023-01-23T20:30:25.025Z,17.90
2023-01-23T20:32:59.728Z,16.30
2023-01-23T20:35:28.322Z,17.20
2023-01-23T20:38:00.818Z,17.50
2023-01-23T20:40:27.942Z,16.30
2023-01-23T20:42:55.090Z,17.70
2023-01-23T20:45:22.415Z,16.20
2023-01-23T20:47:51.964Z,17.20
2023-01-23T20:50:19.539Z,16.80
2023-01-23T20:53:06.620Z,16.90
2023-01-23T20:55:34.511Z,15.90
2023-01-23T20:58:25.499Z,16.60
2023-01-23T21:00:52.341Z,16.40
2023-01-23T21:03:19.653Z,17.20
2023-01-23T21:05:47.095Z,17.10
2023-01-23T21:08:19.891Z,18.30
2023-01-23T21:10:46.926Z,19.00
2023-01-23T21:13:16.869Z,18.60
2023-01-23T21:15:43.907Z,18.60
2023-01-23T21:18:10.816Z,19.10
2023-01-23T21:20:39.969Z,20.80
2023-01-23T21:23:06.996Z,17.80
2023-01-23T21:25:35.214Z,19.00
2023-01-23T21:28:02.007Z,18.50
2023-01-23T21:30:29.291Z,17.80
2023-01-23T21:32:56.088Z,17.60
2023-01-23T21:35:23.780Z,15.30
2023-01-23T21:37:50.938Z,18.10
2023-01-23T21:40:23.088Z,17.40
2023-01-23T21:42:50.158Z,17.60
2023-01-23T21:45:16.960Z,16.70
2023-01-23T21:47:43.728Z,16.90
2023-01-23T21:50:17.774Z,17.10
2023-01-23T21:52:44.546Z,16.30
2023-01-23T21:55:11.376Z,16.40
2023-01-23T21:57:43.508Z,16.00
2023-01-23T22:00:29.430Z,16.90
2023-01-23T22:02:56.397Z,16.70
2023-01-23T22:05:23.575Z,16.40
2023-01-23T22:07:55.634Z,15.70
2023-01-23T22:10:22.469Z,16.60
2023-01-23T22:12:54.580Z,15.10
2023-01-23T22:15:26.606Z,15.10
2023-01-23T22:17:53.424Z,15.00
2023-01-23T22:20:20.677Z,15.50
2023-01-23T22:22:47.537Z,15.30
2023-01-23T22:25:14.638Z,14.20
2023-01-23T22:27:41.429Z,14.90
2023-01-23T22:30:08.634Z,13.70
2023-01-23T22:32:35.514Z,14.20
2023-01-23T22:35:02.297Z,14.20
